Time;durP1;ratioP1;P1;durP2;ratioP2;P2;SDS_P1;SDS_P2;PMS_P1;PMS_P2;Temp;Humidity;BMP_temperature;BMP_pressure;BME280_temperature;BME280_humidity;BME280_pressure;Samples;Min_cycle;Max_cycle;Signal;HPM_P1;HPM_P2
2022/07/23 00:01:30;;;;;;;6.10;3.47;;;16.70;99.90;;;;;;5073106;28;20044;-67
2022/07/23 00:03:56;;;;;;;8.48;3.50;;;16.40;99.90;;;;;;5060290;28;20038;-67
2022/07/23 00:06:23;;;;;;;7.32;3.72;;;16.40;99.90;;;;;;5073292;28;20044;-67
2022/07/23 00:08:49;;;;;;;6.03;3.83;;;16.30;99.90;;;;;;5072633;28;20472;-67
2022/07/23 00:11:14;;;;;;;8.95;3.88;;;16.30;99.90;;;;;;5069535;28;20043;-67
2022/07/23 00:13:40;;;;;;;8.82;3.70;;;16.30;99.90;;;;;;5082278;28;20052;-67
2022/07/23 00:16:06;;;;;;;7.63;3.90;;;16.30;99.90;;;;;;5072849;28;20047;-67
2022/07/23 00:18:32;;;;;;;8.40;4.00;;;16.20;99.90;;;;;;5072390;28;20538;-67
2022/07/23 00:20:57;;;;;;;7.15;3.60;;;16.20;99.90;;;;;;5056125;28;20044;-67
2022/07/23 00:23:24;;;;;;;10.02;4.50;;;16.20;99.90;;;;;;5073462;28;20190;-67
2022/07/23 00:25:51;;;;;;;7.13;3.60;;;16.10;99.90;;;;;;5072650;28;20102;-67
2022/07/23 00:28:18;;;;;;;6.68;3.55;;;16.10;99.90;;;;;;5037715;28;20074;-67
2022/07/23 00:30:44;;;;;;;7.50;3.80;;;16.10;99.90;;;;;;5084963;28;20040;-67
2022/07/23 00:33:09;;;;;;;8.43;4.03;;;16.00;99.90;;;;;;5092045;28;20492;-67
2022/07/23 00:35:40;;;;;;;7.70;4.38;;;16.10;99.90;;;;;;5092391;28;20040;-67
2022/07/23 00:38:06;;;;;;;8.95;3.95;;;16.00;99.90;;;;;;5073863;28;20076;-67
2022/07/23 00:40:32;;;;;;;8.30;4.45;;;16.10;99.90;;;;;;5054454;28;20535;-67
2022/07/23 00:42:59;;;;;;;7.35;3.90;;;16.00;99.90;;;;;;5072139;28;20041;-67
2022/07/23 00:45:25;;;;;;;7.25;3.95;;;16.90;99.90;;;;;;5072555;28;20493;-67
2022/07/23 00:47:51;;;;;;;11.60;4.20;;;15.90;99.90;;;;;;5087250;28;20044;-67
2022/07/23 00:50:16;;;;;;;8.60;4.30;;;15.90;99.90;;;;;;5087988;28;20045;-67
2022/07/23 00:52:42;;;;;;;7.03;3.95;;;16.20;99.90;;;;;;5073169;28;20044;-68
2022/07/23 00:55:09;;;;;;;7.28;4.47;;;15.80;99.90;;;;;;5073606;28;20114;-67
2022/07/23 00:57:35;;;;;;;9.70;4.57;;;15.80;99.90;;;;;;5080648;28;20040;-67
2022/07/23 01:00:02;;;;;;;9.15;4.57;;;15.80;99.90;;;;;;5091318;28;20044;-68
2022/07/23 01:02:28;;;;;;;6.38;4.45;;;15.70;99.90;;;;;;5091385;28;20093;-67
2022/07/23 01:04:54;;;;;;;8.90;4.95;;;16.10;99.90;;;;;;5091039;28;20504;-68
2022/07/23 01:07:21;;;;;;;10.02;4.72;;;15.70;99.90;;;;;;5078961;28;20045;-68
2022/07/23 01:09:48;;;;;;;10.85;4.97;;;15.70;99.90;;;;;;5071551;28;20497;-68
2022/07/23 01:12:14;;;;;;;9.85;4.72;;;15.80;99.90;;;;;;5067836;28;20440;-68
2022/07/23 01:14:39;;;;;;;7.28;4.07;;;15.90;99.90;;;;;;5076386;28;20036;-68
2022/07/23 01:17:05;;;;;;;7.32;3.80;;;15.70;99.90;;;;;;5060284;28;20125;-67
2022/07/23 01:19:31;;;;;;;7.38;4.28;;;15.90;99.90;;;;;;5093706;28;20115;-68
2022/07/23 01:21:58;;;;;;;6.53;4.15;;;15.70;99.90;;;;;;5076270;28;20082;-68
2022/07/23 01:24:23;;;;;;;6.35;4.43;;;15.60;99.90;;;;;;5075841;28;20484;-68
2022/07/23 01:26:49;;;;;;;11.30;4.53;;;15.70;99.90;;;;;;5061454;28;20070;-68
2022/07/23 01:29:16;;;;;;;9.38;5.38;;;15.60;99.90;;;;;;5075959;28;20110;-68
2022/07/23 01:31:42;;;;;;;8.93;4.90;;;15.60;99.90;;;;;;5076961;28;20055;-68
2022/07/23 01:34:08;;;;;;;7.55;4.90;;;15.70;99.90;;;;;;5069296;28;20075;-68
2022/07/23 01:36:34;;;;;;;11.05;4.35;;;15.60;99.90;;;;;;5095902;28;20051;-68
2022/07/23 01:39:00;;;;;;;7.50;4.40;;;15.60;99.90;;;;;;5077269;28;20039;-68
2022/07/23 01:41:26;;;;;;;11.45;5.25;;;15.80;99.90;;;;;;5095566;28;20549;-68
2022/07/23 01:43:51;;;;;;;8.18;4.47;;;15.80;99.90;;;;;;5076937;28;20047;-68
2022/07/23 01:46:17;;;;;;;8.43;4.47;;;15.60;99.90;;;;;;5093199;28;20055;-68
2022/07/23 01:48:43;;;;;;;11.23;4.63;;;15.60;99.90;;;;;;5066010;28;20067;-68
2022/07/23 01:51:08;;;;;;;11.85;4.63;;;15.60;99.90;;;;;;5086367;28;20385;-68
2022/07/23 01:53:34;;;;;;;10.70;4.55;;;15.60;99.90;;;;;;5096047;28;20047;-68
2022/07/23 01:56:00;;;;;;;6.53;4.47;;;15.90;99.90;;;;;;5093998;28;20040;-68
2022/07/23 01:58:27;;;;;;;9.52;4.53;;;15.50;99.90;;;;;;5083332;28;20044;-68
2022/07/23 02:00:54;;;;;;;9.48;4.45;;;15.50;99.90;;;;;;5076536;28;20323;-68
2022/07/23 02:03:20;;;;;;;9.93;5.10;;;15.50;99.90;;;;;;5075094;28;20045;-68
2022/07/23 02:05:45;;;;;;;7.97;4.80;;;15.50;99.90;;;;;;5075514;28;20520;-68
2022/07/23 02:08:11;;;;;;;8.02;4.82;;;15.40;99.90;;;;;;5061379;28;20574;-68
2022/07/23 02:10:37;;;;;;;7.30;4.50;;;15.40;99.90;;;;;;5077133;28;20032;-68
2022/07/23 02:13:02;;;;;;;9.52;5.07;;;15.40;99.90;;;;;;5094033;28;20415;-68
2022/07/23 02:15:28;;;;;;;10.60;4.82;;;15.40;99.90;;;;;;5094996;28;20048;-68
2022/07/23 02:17:55;;;;;;;7.15;4.70;;;15.40;99.90;;;;;;5077044;28;20160;-68
2022/07/23 02:20:22;;;;;;;8.70;4.75;;;15.60;99.90;;;;;;5094880;28;20055;-68
2022/07/23 02:22:48;;;;;;;10.60;4.80;;;15.50;99.90;;;;;;5058834;28;20090;-68
2022/07/23 02:25:14;;;;;;;12.85;5.28;;;15.50;99.90;;;;;;5075133;28;20094;-68
2022/07/23 02:27:40;;;;;;;10.02;4.93;;;15.40;99.90;;;;;;5074550;28;20427;-67
2022/07/23 02:30:06;;;;;;;12.15;5.32;;;15.40;99.90;;;;;;5074802;28;20052;-68
2022/07/23 02:32:31;;;;;;;9.68;5.15;;;15.40;99.90;;;;;;5074573;28;20045;-68
2022/07/23 02:34:57;;;;;;;11.13;4.85;;;15.40;99.90;;;;;;5075019;28;20114;-68
2022/07/23 02:37:23;;;;;;;10.98;5.18;;;16.20;99.90;;;;;;5071852;28;20048;-68
2022/07/23 02:39:48;;;;;;;10.93;5.28;;;15.40;99.90;;;;;;5074782;28;20052;-68
2022/07/23 02:42:15;;;;;;;10.55;5.40;;;15.40;99.90;;;;;;5089564;28;20047;-68
2022/07/23 02:44:40;;;;;;;9.45;5.50;;;15.40;99.90;;;;;;5075960;28;20044;-68
2022/07/23 02:47:06;;;;;;;10.80;5.25;;;15.40;99.90;;;;;;5094934;28;20051;-68
2022/07/23 02:49:32;;;;;;;8.70;5.43;;;15.40;99.90;;;;;;5094228;28;20056;-68
2022/07/23 02:51:57;;;;;;;6.88;4.88;;;15.40;99.90;;;;;;5076196;28;20044;-68
2022/07/23 02:54:23;;;;;;;11.15;5.60;;;15.40;99.90;;;;;;5093783;28;20055;-68
2022/07/23 02:56:51;;;;;;;9.95;5.10;;;15.40;99.90;;;;;;5094292;28;20469;-68
2022/07/23 02:59:17;;;;;;;9.73;5.68;;;15.90;99.90;;;;;;5076089;28;20137;-68
2022/07/23 03:01:43;;;;;;;8.63;5.22;;;15.30;99.90;;;;;;5061047;28;20484;-68
2022/07/23 03:04:08;;;;;;;9.40;5.32;;;15.40;99.90;;;;;;5073991;28;20045;-68
2022/07/23 03:06:34;;;;;;;10.70;5.57;;;15.30;99.90;;;;;;5073599;28;20044;-68
2022/07/23 03:08:59;;;;;;;8.02;5.05;;;15.40;99.90;;;;;;5073980;28;20140;-68
2022/07/23 03:11:25;;;;;;;8.30;5.53;;;15.30;99.90;;;;;;5074490;28;20051;-68
2022/07/23 03:13:51;;;;;;;9.02;5.45;;;15.30;99.90;;;;;;5055716;28;20052;-68
2022/07/23 03:16:16;;;;;;;9.85;5.47;;;15.30;99.90;;;;;;5073819;28;20481;-68
2022/07/23 03:18:42;;;;;;;10.40;5.20;;;15.30;99.90;;;;;;5073863;28;20056;-68
2022/07/23 03:21:08;;;;;;;10.45;5.53;;;15.30;99.90;;;;;;5073646;28;20541;-68
2022/07/23 03:23:33;;;;;;;9.80;5.35;;;15.30;99.90;;;;;;5083959;28;20075;-67
2022/07/23 03:25:59;;;;;;;10.05;5.35;;;15.30;99.90;;;;;;5093302;28;20036;-67
2022/07/23 03:28:25;;;;;;;10.23;4.95;;;15.30;99.90;;;;;;5091578;28;20047;-68
2022/07/23 03:30:50;;;;;;;8.80;5.18;;;15.30;99.90;;;;;;5093269;28;20040;-68
2022/07/23 03:33:17;;;;;;;10.48;5.85;;;15.30;99.90;;;;;;5074636;28;20036;-68
2022/07/23 03:35:44;;;;;;;8.65;5.15;;;15.90;99.90;;;;;;5093619;28;20040;-68
2022/07/23 03:38:09;;;;;;;9.65;4.80;;;15.30;99.90;;;;;;5088911;28;20052;-68
2022/07/23 03:40:35;;;;;;;7.63;4.70;;;15.30;99.90;;;;;;5073319;28;20115;-68
2022/07/23 03:43:01;;;;;;;9.10;5.15;;;15.20;99.90;;;;;;5072559;28;20032;-68
2022/07/23 03:45:27;;;;;;;8.73;4.57;;;15.30;99.90;;;;;;5078573;28;20116;-68
2022/07/23 03:47:52;;;;;;;10.85;5.38;;;15.30;99.90;;;;;;5093171;28;20477;-68
2022/07/23 03:50:18;;;;;;;7.20;4.80;;;15.30;99.90;;;;;;5055676;28;20119;-68
2022/07/23 03:52:44;;;;;;;9.35;5.10;;;15.30;99.90;;;;;;5089877;28;20089;-68
2022/07/23 03:55:09;;;;;;;8.93;5.18;;;15.30;99.90;;;;;;5091530;28;20036;-68
2022/07/23 03:57:35;;;;;;;7.70;4.80;;;15.40;99.90;;;;;;5092766;28;20477;-68
2022/07/23 04:00:03;;;;;;;9.40;5.22;;;15.70;99.90;;;;;;5075784;28;20025;-68
2022/07/23 04:02:29;;;;;;;7.50;4.63;;;15.30;99.90;;;;;;5066844;28;20047;-67
2022/07/23 04:04:54;;;;;;;9.38;4.75;;;15.30;99.90;;;;;;5067464;28;20055;-68
2022/07/23 04:07:21;;;;;;;10.65;4.70;;;15.30;99.90;;;;;;5051296;28;20475;-68
2022/07/23 04:09:47;;;;;;;10.00;4.65;;;15.30;99.90;;;;;;5074187;28;20047;-68
2022/07/23 04:12:12;;;;;;;7.55;4.78;;;15.40;99.90;;;;;;5091991;28;20127;-68
2022/07/23 04:14:38;;;;;;;8.00;4.63;;;15.30;99.90;;;;;;5091311;28;20135;-67
2022/07/23 04:17:04;;;;;;;9.32;4.97;;;15.40;99.90;;;;;;5075185;28;20170;-67
2022/07/23 04:19:30;;;;;;;7.53;4.65;;;15.30;99.90;;;;;;5072749;28;20085;-68
2022/07/23 04:21:56;;;;;;;7.28;4.55;;;15.50;99.90;;;;;;5073719;28;20116;-68
2022/07/23 04:24:22;;;;;;;9.35;4.80;;;15.30;99.90;;;;;;5073440;28;20442;-68
2022/07/23 04:26:47;;;;;;;9.02;4.90;;;15.30;99.90;;;;;;5091141;28;20036;-67
2022/07/23 04:29:13;;;;;;;10.23;4.38;;;15.40;99.90;;;;;;5075848;28;20041;-68
2022/07/23 04:31:39;;;;;;;6.63;4.50;;;15.40;99.90;;;;;;5054381;28;20052;-68
2022/07/23 04:34:04;;;;;;;9.50;4.82;;;15.40;99.90;;;;;;5051072;28;20048;-68
2022/07/23 04:36:30;;;;;;;7.55;4.15;;;15.40;99.90;;;;;;5060117;28;20064;-68
2022/07/23 04:38:56;;;;;;;8.80;3.90;;;15.50;99.90;;;;;;5070294;28;20037;-68
2022/07/23 04:41:21;;;;;;;7.57;4.10;;;15.40;99.90;;;;;;5070396;28;20028;-68
2022/07/23 04:43:47;;;;;;;7.50;3.97;;;15.80;99.90;;;;;;5073209;28;20045;-68
2022/07/23 04:46:13;;;;;;;7.53;4.00;;;15.40;99.90;;;;;;5071894;28;20028;-67
2022/07/23 04:48:39;;;;;;;11.90;4.45;;;15.40;99.90;;;;;;5072393;28;20124;-68
2022/07/23 04:51:05;;;;;;;9.82;4.40;;;15.40;99.90;;;;;;5072512;28;20100;-68
2022/07/23 04:53:30;;;;;;;10.00;4.22;;;15.40;99.90;;;;;;5072136;28;20048;-68
2022/07/23 04:55:56;;;;;;;7.95;3.97;;;15.40;99.90;;;;;;5070812;28;20040;-68
2022/07/23 04:58:21;;;;;;;10.70;4.15;;;15.40;99.90;;;;;;5075635;28;20044;-68
2022/07/23 05:00:47;;;;;;;7.00;4.13;;;15.90;99.90;;;;;;5072361;28;20048;-67
2022/07/23 05:03:13;;;;;;;7.22;4.20;;;15.70;99.90;;;;;;5071950;28;20331;-68
2022/07/23 05:05:38;;;;;;;9.50;3.70;;;15.50;99.90;;;;;;5072770;28;20040;-68
2022/07/23 05:08:04;;;;;;;9.75;4.35;;;15.70;99.90;;;;;;5072240;28;20040;-67
2022/07/23 05:10:30;;;;;;;7.60;4.25;;;15.70;99.90;;;;;;5064853;28;20555;-68
2022/07/23 05:12:56;;;;;;;7.13;3.60;;;15.60;99.90;;;;;;5081360;28;20135;-68
2022/07/23 05:15:21;;;;;;;7.10;3.95;;;15.60;99.90;;;;;;5086255;28;20048;-67
2022/07/23 05:17:47;;;;;;;10.98;3.92;;;15.70;99.90;;;;;;5053867;28;20063;-67
2022/07/23 05:20:13;;;;;;;6.35;3.58;;;15.70;99.90;;;;;;5079139;28;20041;-68
2022/07/23 05:22:39;;;;;;;6.22;3.70;;;15.80;99.90;;;;;;5091579;28;20442;-68
2022/07/23 05:25:05;;;;;;;7.88;4.18;;;15.80;99.90;;;;;;5090936;28;20039;-68
2022/07/23 05:27:31;;;;;;;7.80;4.03;;;15.80;99.90;;;;;;5091603;28;20063;-68
2022/07/23 05:29:57;;;;;;;6.15;3.80;;;15.80;99.90;;;;;;5077839;28;20128;-68
2022/07/23 05:32:23;;;;;;;10.40;3.97;;;15.80;99.90;;;;;;5071515;28;20040;-68
2022/07/23 05:34:49;;;;;;;6.20;3.83;;;15.80;99.90;;;;;;5067923;28;20127;-68
2022/07/23 05:37:15;;;;;;;6.53;3.70;;;15.80;99.90;;;;;;5072269;28;20183;-68
2022/07/23 05:39:41;;;;;;;8.57;4.03;;;15.80;99.90;;;;;;5078456;28;20115;-68
2022/07/23 05:42:07;;;;;;;6.80;4.00;;;15.80;99.90;;;;;;5072859;28;20048;-68
2022/07/23 05:44:33;;;;;;;6.32;4.00;;;15.80;99.90;;;;;;5071811;28;20405;-68
2022/07/23 05:46:58;;;;;;;6.75;3.83;;;15.80;99.90;;;;;;5071906;28;20052;-68
2022/07/23 05:49:24;;;;;;;7.38;4.20;;;15.70;99.90;;;;;;5072732;28;20052;-68
2022/07/23 05:51:49;;;;;;;6.63;3.75;;;15.80;99.90;;;;;;5071849;28;20071;-68
2022/07/23 05:54:15;;;;;;;7.28;3.70;;;15.80;99.90;;;;;;5053698;28;20450;-68
2022/07/23 05:56:41;;;;;;;4.75;3.30;;;15.90;99.90;;;;;;5073909;28;20068;-68
2022/07/23 05:59:06;;;;;;;7.20;3.45;;;16.00;99.90;;;;;;5091606;28;20051;-67
2022/07/23 06:01:32;;;;;;;6.50;3.55;;;16.00;99.90;;;;;;5072685;28;20055;-67
2022/07/23 06:03:57;;;;;;;5.63;2.90;;;16.30;99.90;;;;;;5076200;28;20290;-67
2022/07/23 06:06:23;;;;;;;7.88;2.85;;;16.50;99.90;;;;;;5075082;28;20397;-67
2022/07/23 06:08:49;;;;;;;6.78;2.88;;;16.30;99.90;;;;;;5043880;28;20044;-67
2022/07/23 06:11:14;;;;;;;7.35;3.08;;;16.30;99.90;;;;;;5060274;28;20065;-66
2022/07/23 06:13:40;;;;;;;4.75;2.80;;;16.40;99.90;;;;;;5079961;28;20048;-69
2022/07/23 06:16:05;;;;;;;6.20;2.70;;;16.40;99.90;;;;;;5056839;28;20357;-66
2022/07/23 06:18:31;;;;;;;3.90;2.50;;;16.90;99.90;;;;;;5074833;28;20044;-67
2022/07/23 06:20:57;;;;;;;4.10;2.92;;;16.50;99.90;;;;;;5073669;28;20045;-66
2022/07/23 06:23:22;;;;;;;5.45;2.50;;;16.60;99.90;;;;;;5073693;28;20400;-67
2022/07/23 06:25:48;;;;;;;5.07;2.65;;;16.90;99.90;;;;;;5074944;28;20048;-67
2022/07/23 06:28:14;;;;;;;4.95;2.95;;;16.70;99.90;;;;;;5075658;28;20056;-67
2022/07/23 06:30:39;;;;;;;4.32;2.67;;;16.70;99.90;;;;;;5074769;28;20601;-66
2022/07/23 06:33:05;;;;;;;6.15;2.88;;;16.70;99.90;;;;;;5056567;28;20052;-67
2022/07/23 06:35:31;;;;;;;5.07;2.60;;;16.90;99.90;;;;;;5056742;28;20478;-67
2022/07/23 06:37:56;;;;;;;5.32;2.92;;;16.80;99.90;;;;;;5074615;28;20515;-67
2022/07/23 06:40:22;;;;;;;4.53;2.67;;;16.80;99.90;;;;;;5074316;28;20045;-67
2022/07/23 06:42:47;;;;;;;4.70;2.70;;;16.90;99.90;;;;;;5074306;28;20056;-67
2022/07/23 06:45:13;;;;;;;5.82;2.95;;;16.90;99.90;;;;;;5074698;28;20048;-68
2022/07/23 06:47:40;;;;;;;6.43;3.08;;;16.90;99.90;;;;;;5074275;28;20078;-68
2022/07/23 06:50:06;;;;;;;4.65;2.80;;;16.90;99.90;;;;;;5075564;28;20044;-67
2022/07/23 06:52:31;;;;;;;6.82;2.83;;;16.90;99.90;;;;;;5073846;28;20109;-67
2022/07/23 06:54:57;;;;;;;5.68;2.70;;;16.90;99.90;;;;;;5074479;28;20397;-67
2022/07/23 06:57:25;;;;;;;7.03;3.20;;;16.90;99.90;;;;;;5055300;28;20056;-68
2022/07/23 06:59:51;;;;;;;7.18;3.03;;;16.90;99.90;;;;;;5047966;28;20049;-68
2022/07/23 07:02:16;;;;;;;7.07;3.00;;;16.90;99.90;;;;;;5056595;28;20060;-67
2022/07/23 07:04:42;;;;;;;5.47;2.58;;;17.10;99.90;;;;;;5074296;28;20044;-67
2022/07/23 07:07:08;;;;;;;5.07;2.63;;;17.00;99.90;;;;;;5055837;28;20139;-68
2022/07/23 07:09:33;;;;;;;5.18;2.60;;;17.00;99.90;;;;;;5074612;28;20041;-67
2022/07/23 07:11:59;;;;;;;5.55;2.70;;;17.10;99.90;;;;;;5073796;28;20135;-68
2022/07/23 07:14:25;;;;;;;5.72;2.00;;;17.10;99.90;;;;;;5073634;28;20478;-67
2022/07/23 07:16:50;;;;;;;2.88;1.52;;;17.20;99.90;;;;;;5073852;28;20033;-67
2022/07/23 07:19:16;;;;;;;2.65;1.60;;;17.20;99.90;;;;;;5055722;28;20036;-68
2022/07/23 07:21:42;;;;;;;3.53;1.55;;;17.50;99.90;;;;;;5073835;28;20041;-67
2022/07/23 07:24:07;;;;;;;3.70;1.60;;;17.40;99.90;;;;;;5075681;28;20040;-67
2022/07/23 07:26:33;;;;;;;2.15;1.40;;;17.40;99.90;;;;;;5073844;28;20442;-71
2022/07/23 07:28:59;;;;;;;2.20;1.30;;;17.50;99.90;;;;;;5073491;28;20182;-71
2022/07/23 07:31:25;;;;;;;3.92;1.27;;;17.80;99.90;;;;;;5072619;28;20032;-71
2022/07/23 07:33:51;;;;;;;2.72;1.20;;;17.70;99.90;;;;;;5071651;28;20524;-71
2022/07/23 07:36:16;;;;;;;5.65;1.40;;;17.90;99.90;;;;;;5076263;28;20032;-71
2022/07/23 07:38:42;;;;;;;2.70;1.30;;;18.60;99.90;;;;;;5072641;28;20052;-71
2022/07/23 07:41:09;;;;;;;5.07;1.40;;;18.10;99.90;;;;;;5073389;28;20049;-71
2022/07/23 07:43:36;;;;;;;2.40;1.25;;;18.20;99.90;;;;;;5073117;28;20040;-70
2022/07/23 07:46:02;;;;;;;1.85;1.25;;;18.20;99.90;;;;;;5073197;28;20051;-70
2022/07/23 07:48:28;;;;;;;2.75;1.10;;;18.50;99.90;;;;;;5068243;28;20044;-70
2022/07/23 07:50:54;;;;;;;1.77;1.10;;;18.40;99.90;;;;;;5035019;28;20045;-71
2022/07/23 07:53:19;;;;;;;2.60;1.10;;;18.40;99.90;;;;;;5052478;28;20046;-71
2022/07/23 07:55:45;;;;;;;1.70;1.02;;;18.60;99.90;;;;;;5053328;28;20076;-70
2022/07/23 07:58:11;;;;;;;1.83;0.90;;;19.20;99.90;;;;;;5018250;28;20041;-71
2022/07/23 08:00:36;;;;;;;1.90;1.10;;;18.70;99.90;;;;;;5052836;28;20041;-72
2022/07/23 08:03:02;;;;;;;3.22;1.10;;;18.70;99.90;;;;;;5051357;28;20540;-71
2022/07/23 08:05:30;;;;;;;2.17;1.10;;;18.70;99.90;;;;;;5066248;28;20036;-71
2022/07/23 08:07:56;;;;;;;2.45;1.10;;;18.80;99.90;;;;;;5054567;28;20050;-72
2022/07/23 08:10:23;;;;;;;2.47;1.30;;;18.90;99.90;;;;;;5072851;28;20086;-72
2022/07/23 08:12:54;;;;;;;2.15;1.20;;;19.00;99.90;;;;;;5071806;28;20476;-72
2022/07/23 08:15:25;;;;;;;2.53;1.20;;;19.00;99.90;;;;;;5054501;28;20493;-72
2022/07/23 08:17:51;;;;;;;2.65;0.98;;;19.10;99.90;;;;;;5054394;28;20106;-72
2022/07/23 08:20:18;;;;;;;3.63;1.13;;;19.10;99.90;;;;;;5068245;28;20408;-72
2022/07/23 08:22:55;;;;;;;2.25;1.10;;;19.10;99.90;;;;;;5092194;28;20094;-71
2022/07/23 08:25:26;;;;;;;1.73;0.93;;;19.20;99.90;;;;;;5093161;28;20045;-73
2022/07/23 08:27:53;;;;;;;2.63;1.10;;;19.20;99.90;;;;;;5075502;28;20055;-81
2022/07/23 08:30:20;;;;;;;5.13;1.38;;;19.10;99.90;;;;;;5075767;28;20055;-82
2022/07/23 08:32:49;;;;;;;4.53;1.40;;;19.20;99.90;;;;;;5093228;28;20122;-81
2022/07/23 08:35:15;;;;;;;1.95;1.15;;;19.40;99.90;;;;;;5082800;28;20350;-80
2022/07/23 08:37:41;;;;;;;2.92;1.05;;;19.60;99.90;;;;;;5077510;28;20059;-82
2022/07/23 08:40:07;;;;;;;3.22;1.35;;;19.80;99.90;;;;;;5081711;28;20048;-81
2022/07/23 08:42:35;;;;;;;3.28;1.20;;;19.90;99.90;;;;;;5081789;28;20396;-81
2022/07/23 08:45:02;;;;;;;3.95;1.20;;;19.90;99.90;;;;;;5073694;28;20087;-81
2022/07/23 08:47:29;;;;;;;2.30;1.30;;;19.90;99.90;;;;;;5070038;28;20052;-81
2022/07/23 08:49:56;;;;;;;1.13;1.02;;;19.90;99.90;;;;;;5072179;28;20049;-81
2022/07/23 08:52:23;;;;;;;2.72;1.13;;;19.90;99.90;;;;;;5072314;28;20106;-81
2022/07/23 08:54:49;;;;;;;7.03;1.30;;;19.90;99.90;;;;;;5073242;28;20051;-82
2022/07/23 08:57:14;;;;;;;1.85;1.00;;;19.70;99.90;;;;;;5072246;28;20523;-81
2022/07/23 08:59:41;;;;;;;3.63;1.30;;;19.80;99.90;;;;;;5055713;28;20047;-79
2022/07/23 09:02:06;;;;;;;3.33;1.27;;;19.90;99.90;;;;;;5072956;28;20076;-81
2022/07/23 09:04:32;;;;;;;1.98;1.02;;;19.90;99.90;;;;;;5072766;28;20060;-80
2022/07/23 09:06:59;;;;;;;1.63;1.10;;;20.80;99.90;;;;;;5085830;28;20044;-81
2022/07/23 09:09:29;;;;;;;2.97;1.10;;;20.30;99.90;;;;;;5074358;28;20082;-81
2022/07/23 09:12:04;;;;;;;1.77;1.10;;;20.40;99.90;;;;;;5072184;28;20049;-81
2022/07/23 09:14:44;;;;;;;2.20;1.10;;;20.50;99.90;;;;;;5072350;28;20041;-81
2022/07/23 09:17:11;;;;;;;3.15;1.10;;;20.70;99.90;;;;;;5072284;28;20041;-81
2022/07/23 09:19:38;;;;;;;6.75;1.27;;;20.60;99.90;;;;;;5053292;28;20103;-81
2022/07/23 09:22:24;;;;;;;3.10;1.10;;;20.70;99.90;;;;;;5071871;28;20481;-81
2022/07/23 09:25:10;;;;;;;2.20;1.20;;;20.70;99.90;;;;;;5071893;28;20044;-81
2022/07/23 09:27:55;;;;;;;4.55;1.30;;;20.60;99.90;;;;;;5072090;28;20048;-80
2022/07/23 09:34:07;;;;;;;2.60;1.20;;;20.60;99.90;;;;;;4979500;28;20547;-80
2022/07/23 09:36:32;;;;;;;3.05;1.30;;;20.60;99.90;;;;;;5012491;28;20046;-81
2022/07/23 09:38:58;;;;;;;3.25;1.23;;;20.70;99.90;;;;;;5028235;28;20422;-80
2022/07/23 09:41:24;;;;;;;2.05;1.20;;;20.60;99.90;;;;;;5034473;28;20044;-80
2022/07/23 09:43:55;;;;;;;2.75;1.17;;;20.60;99.90;;;;;;5053227;28;20045;-80
2022/07/23 09:46:23;;;;;;;3.28;1.00;;;20.80;99.90;;;;;;5038091;28;20068;-80
2022/07/23 09:48:51;;;;;;;5.32;1.40;;;20.80;99.90;;;;;;5029496;28;20118;-80
2022/07/23 09:51:36;;;;;;;2.05;1.10;;;20.80;99.90;;;;;;5031159;28;20049;-81
2022/07/23 09:54:02;;;;;;;2.75;1.10;;;20.80;99.90;;;;;;5027850;28;20140;-80
2022/07/23 09:56:28;;;;;;;2.75;1.10;;;20.90;99.90;;;;;;5031034;28;20118;-80
2022/07/23 09:59:12;;;;;;;4.05;1.20;;;21.10;99.90;;;;;;5009758;28;20581;-80
2022/07/23 10:01:39;;;;;;;5.72;1.40;;;21.40;99.90;;;;;;5012502;28;20060;-82
2022/07/23 10:04:06;;;;;;;2.58;1.10;;;21.70;99.90;;;;;;5028080;28;20179;-82
2022/07/23 10:06:33;;;;;;;4.47;1.35;;;21.90;99.90;;;;;;5028950;28;20042;-82
2022/07/23 10:09:01;;;;;;;1.90;1.00;;;21.80;99.90;;;;;;5030526;28;20104;-81
2022/07/23 10:11:28;;;;;;;1.95;1.20;;;21.60;99.90;;;;;;5011608;28;20102;-81
2022/07/23 10:13:59;;;;;;;1.92;1.30;;;21.40;99.90;;;;;;5029519;28;20459;-81
2022/07/23 10:16:26;;;;;;;2.40;1.30;;;21.30;99.90;;;;;;5028950;28;20099;-78
2022/07/23 10:18:52;;;;;;;5.20;1.38;;;21.20;99.90;;;;;;5027323;28;20057;-81
2022/07/23 10:21:34;;;;;;;2.20;1.25;;;21.20;99.90;;;;;;5029302;28;20048;-80
2022/07/23 10:24:30;;;;;;;2.72;1.30;;;20.80;99.90;;;;;;5029393;28;20150;-78
2022/07/23 10:27:00;;;;;;;3.42;1.10;;;20.80;99.90;;;;;;5028057;28;20122;-77
2022/07/23 10:29:41;;;;;;;2.30;1.30;;;20.90;99.90;;;;;;5047937;28;20106;-76
2022/07/23 10:32:19;;;;;;;2.00;1.13;;;21.00;99.90;;;;;;5025969;28;20057;-78
2022/07/23 10:35:05;;;;;;;3.45;1.23;;;21.10;99.90;;;;;;5042226;28;20064;-79
2022/07/23 10:37:41;;;;;;;3.72;1.40;;;21.20;99.90;;;;;;5009470;28;20104;-79
2022/07/23 10:40:14;;;;;;;4.50;1.90;;;21.10;99.90;;;;;;4992067;28;20045;-79
2022/07/23 10:42:41;;;;;;;4.00;1.40;;;21.20;99.90;;;;;;4988069;28;20132;-78
2022/07/23 10:45:28;;;;;;;1.90;1.27;;;21.20;99.90;;;;;;5019355;28;20216;-79
2022/07/23 10:47:55;;;;;;;4.95;1.45;;;21.40;99.90;;;;;;5013599;28;20048;-78
2022/07/23 10:50:30;;;;;;;3.17;1.52;;;21.60;99.90;;;;;;5025312;28;20108;-79
2022/07/23 10:53:08;;;;;;;3.25;1.30;;;22.00;99.90;;;;;;5025093;28;20049;-79
2022/07/23 10:55:34;;;;;;;2.95;1.20;;;22.00;99.90;;;;;;5029079;28;20049;-79
2022/07/23 10:58:03;;;;;;;2.17;1.30;;;22.10;99.90;;;;;;5027716;28;20049;-79
2022/07/23 11:00:34;;;;;;;3.92;1.40;;;21.60;99.90;;;;;;5027740;28;20067;-78
2022/07/23 11:03:02;;;;;;;7.40;1.50;;;21.50;99.90;;;;;;5026355;28;20111;-79
2022/07/23 11:05:45;;;;;;;4.30;1.40;;;21.30;99.90;;;;;;5030205;28;20125;-79
2022/07/23 11:08:16;;;;;;;3.85;1.38;;;21.40;99.90;;;;;;5011397;28;20191;-79
2022/07/23 11:10:55;;;;;;;3.33;1.50;;;21.50;99.90;;;;;;5010137;28;20046;-79
2022/07/23 11:13:30;;;;;;;5.03;1.45;;;21.70;99.90;;;;;;5007349;28;20053;-69
2022/07/23 11:16:05;;;;;;;2.92;1.33;;;21.60;99.90;;;;;;5007845;28;20073;-69
2022/07/23 11:18:40;;;;;;;2.40;1.45;;;21.50;99.90;;;;;;5024857;28;20412;-69
2022/07/23 11:21:20;;;;;;;5.53;1.60;;;21.40;99.90;;;;;;5026842;28;20164;-68
2022/07/23 11:24:08;;;;;;;6.35;1.63;;;21.20;99.90;;;;;;5006794;28;20311;-69
2022/07/23 11:26:53;;;;;;;1.70;1.30;;;21.10;99.90;;;;;;5025257;28;20045;-68
2022/07/23 11:29:31;;;;;;;5.03;1.60;;;21.40;99.90;;;;;;5026876;28;20041;-68
2022/07/23 11:32:05;;;;;;;3.83;1.45;;;21.40;99.90;;;;;;5025631;28;20144;-69
2022/07/23 11:34:35;;;;;;;4.55;1.40;;;21.50;99.90;;;;;;5024999;28;20053;-69
2022/07/23 11:37:03;;;;;;;3.00;1.83;;;21.50;99.90;;;;;;5025612;28;20169;-69
2022/07/23 11:39:31;;;;;;;6.22;1.60;;;21.40;99.90;;;;;;5023246;28;20493;-70
2022/07/23 11:41:58;;;;;;;8.07;2.00;;;21.50;99.90;;;;;;5023494;28;20079;-70
2022/07/23 11:44:30;;;;;;;5.55;1.70;;;21.50;99.90;;;;;;5023031;28;20042;-69
2022/07/23 11:46:57;;;;;;;5.18;2.00;;;21.40;99.90;;;;;;5006647;28;20131;-69
2022/07/23 11:49:24;;;;;;;6.00;1.80;;;21.50;99.90;;;;;;5005439;28;20045;-69
2022/07/23 11:52:06;;;;;;;2.85;1.58;;;21.70;99.90;;;;;;5022653;28;20041;-68
2022/07/23 11:54:33;;;;;;;3.65;1.60;;;21.70;99.90;;;;;;5018129;28;20517;-68
2022/07/23 11:57:00;;;;;;;2.92;1.70;;;21.90;99.90;;;;;;5024868;28;20564;-68
2022/07/23 11:59:35;;;;;;;6.15;1.77;;;22.00;99.90;;;;;;5022342;28;20767;-69
2022/07/23 12:02:04;;;;;;;;;;;21.90;99.90;;;;;;5022025;28;20054;-69
2022/07/23 12:04:41;;;;;;;2.88;1.45;;;21.70;99.90;;;;;;5021920;28;19925;-68
2022/07/23 12:07:44;;;;;;;5.25;1.60;;;21.70;99.90;;;;;;5021687;28;20073;-68
2022/07/23 12:10:18;;;;;;;6.18;1.70;;;22.40;99.90;;;;;;4970151;28;20505;-69
2022/07/23 12:12:55;;;;;;;4.38;1.90;;;24.60;99.90;;;;;;5013508;28;20053;-80
2022/07/23 12:15:29;;;;;;;2.50;1.60;;;26.70;99.90;;;;;;5026781;28;20049;-78
2022/07/23 12:17:54;;;;;;;3.78;1.88;;;27.80;99.00;;;;;;5028523;28;20101;-80
2022/07/23 12:20:25;;;;;;;4.82;1.50;;;27.70;97.40;;;;;;5027066;28;20378;-81
2022/07/23 12:22:55;;;;;;;3.60;1.58;;;27.60;97.50;;;;;;5028423;28;20425;-78
2022/07/23 12:25:23;;;;;;;2.55;1.33;;;27.20;97.80;;;;;;5027751;28;20042;-81
2022/07/23 12:28:07;;;;;;;3.95;1.27;;;26.90;97.90;;;;;;5026823;28;20124;-81
2022/07/23 12:30:40;;;;;;;4.63;1.60;;;26.50;97.90;;;;;;5010447;28;20060;-81
2022/07/23 12:33:07;;;;;;;5.45;1.60;;;26.20;98.50;;;;;;5027789;28;20080;-82
2022/07/23 12:35:37;;;;;;;2.90;1.55;;;25.90;98.60;;;;;;5028607;28;20045;-81
2022/07/23 12:38:05;;;;;;;3.78;1.40;;;25.10;99.00;;;;;;5028593;28;20056;-81
2022/07/23 12:40:35;;;;;;;6.53;1.48;;;24.90;99.40;;;;;;5009241;28;20049;-79
2022/07/23 12:43:10;;;;;;;3.38;1.60;;;24.60;99.60;;;;;;5007953;28;20057;-69
2022/07/23 12:45:49;;;;;;;2.13;1.20;;;24.50;99.30;;;;;;5027073;28;20387;-69
2022/07/23 12:48:31;;;;;;;3.47;1.30;;;24.50;99.40;;;;;;5028238;28;20046;-69
2022/07/23 12:51:00;;;;;;;3.10;1.40;;;24.40;99.50;;;;;;5027576;28;20057;-70
2022/07/23 12:53:30;;;;;;;3.97;1.30;;;24.40;99.70;;;;;;5027556;28;20140;-69